createdAt,value
2018-06-14T00:00:17.300Z,3.40
2018-06-14T00:02:46.177Z,2.80
2018-06-14T00:05:14.973Z,3.27
2018-06-14T00:07:43.675Z,4.00
2018-06-14T00:10:12.931Z,3.90
2018-06-14T00:12:41.774Z,3.60
2018-06-14T00:15:11.142Z,3.30
2018-06-14T00:17:40.735Z,4.03
2018-06-14T00:20:09.539Z,3.30
2018-06-14T00:22:38.102Z,3.40
2018-06-14T00:25:06.576Z,3.50
2018-06-14T00:27:35.218Z,3.03
2018-06-14T00:30:03.732Z,3.90
2018-06-14T00:32:32.241Z,4.20
2018-06-14T00:35:00.938Z,3.43
2018-06-14T00:37:29.644Z,4.40
2018-06-14T00:39:58.120Z,3.50
2018-06-14T00:42:26.830Z,4.20
2018-06-14T00:44:55.480Z,3.20
2018-06-14T00:47:24.519Z,4.60
2018-06-14T00:49:53.094Z,3.90
2018-06-14T00:52:21.582Z,3.77
2018-06-14T00:54:50.477Z,3.97
2018-06-14T00:57:21.997Z,4.17
2018-06-14T00:59:50.730Z,3.87
2018-06-14T01:02:19.328Z,3.80
2018-06-14T01:04:48.054Z,3.90
2018-06-14T01:07:17.371Z,3.97
2018-06-14T01:09:46.626Z,4.20
2018-06-14T01:12:17.413Z,4.53
2018-06-14T01:14:46.601Z,3.10
2018-06-14T01:17:15.166Z,3.40
2018-06-14T01:19:43.653Z,3.50
2018-06-14T01:22:12.896Z,3.50
2018-06-14T01:24:41.915Z,3.43
2018-06-14T01:27:11.519Z,3.30
2018-06-14T01:29:40.369Z,3.60
2018-06-14T01:32:09.154Z,3.50
2018-06-14T01:34:37.985Z,4.87
2018-06-14T01:37:06.695Z,4.13
2018-06-14T01:39:35.819Z,3.80
2018-06-14T01:42:04.581Z,3.83
2018-06-14T01:44:33.386Z,3.07
2018-06-14T01:47:02.187Z,3.37
2018-06-14T01:49:31.189Z,3.03
2018-06-14T01:52:00.424Z,3.27
2018-06-14T01:54:30.038Z,3.10
2018-06-14T01:56:59.168Z,3.40
2018-06-14T01:59:27.958Z,2.90
2018-06-14T02:01:56.794Z,3.60
2018-06-14T02:04:25.878Z,3.40
2018-06-14T02:06:54.870Z,3.57
2018-06-14T02:09:24.009Z,3.63
2018-06-14T02:11:53.137Z,4.40
2018-06-14T02:14:22.067Z,4.30
2018-06-14T02:16:50.952Z,4.70
2018-06-14T02:19:20.435Z,4.70
2018-06-14T02:21:49.433Z,4.80
2018-06-14T02:24:18.132Z,5.30
2018-06-14T02:26:47.077Z,5.17
2018-06-14T02:29:15.822Z,5.20
2018-06-14T02:31:45.101Z,5.23
2018-06-14T02:34:13.914Z,4.90
2018-06-14T02:36:42.871Z,5.37
2018-06-14T02:39:11.349Z,7.00
2018-06-14T02:41:40.245Z,5.03
2018-06-14T02:44:08.719Z,4.50
2018-06-14T02:46:37.242Z,5.63
2018-06-14T02:49:06.290Z,6.40
2018-06-14T02:51:34.749Z,6.73
2018-06-14T02:54:03.242Z,10.30
2018-06-14T02:56:32.373Z,8.63
2018-06-14T02:59:00.906Z,7.27
2018-06-14T03:01:29.972Z,6.50
2018-06-14T03:03:58.449Z,5.70
2018-06-14T03:06:27.483Z,4.00
2018-06-14T03:08:56.536Z,4.00
2018-06-14T03:11:25.341Z,3.13
2018-06-14T03:13:54.247Z,3.30
2018-06-14T03:16:23.312Z,3.60
2018-06-14T03:18:52.606Z,3.40
2018-06-14T03:21:22.159Z,3.63
2018-06-14T03:23:50.737Z,3.33
2018-06-14T03:26:19.222Z,3.70
2018-06-14T03:28:47.669Z,3.50
2018-06-14T03:31:16.572Z,3.80
2018-06-14T03:33:45.059Z,3.20
2018-06-14T03:36:14.054Z,4.00
2018-06-14T03:38:42.929Z,3.47
2018-06-14T03:41:11.909Z,3.43
2018-06-14T03:43:41.110Z,3.90
2018-06-14T03:46:10.149Z,4.10
2018-06-14T03:48:39.009Z,3.63
2018-06-14T03:51:08.037Z,3.60
2018-06-14T03:53:37.147Z,3.50
2018-06-14T03:56:06.311Z,3.53
2018-06-14T03:58:35.070Z,3.60
2018-06-14T04:01:03.635Z,3.60
2018-06-14T04:03:33.102Z,3.23
2018-06-14T04:06:02.195Z,3.90
2018-06-14T04:08:31.058Z,4.30
2018-06-14T04:10:59.530Z,4.37
2018-06-14T04:13:27.990Z,3.67
2018-06-14T04:15:56.441Z,3.60
2018-06-14T04:18:25.621Z,3.67
2018-06-14T04:20:54.317Z,3.80
2018-06-14T04:23:22.781Z,4.27
2018-06-14T04:25:51.634Z,4.27
2018-06-14T04:28:20.134Z,4.33
2018-06-14T04:30:48.597Z,3.93
2018-06-14T04:33:17.061Z,3.80
2018-06-14T04:35:45.552Z,3.80
2018-06-14T04:38:14.283Z,4.00
2018-06-14T04:40:43.833Z,4.00
2018-06-14T04:43:13.795Z,3.80
2018-06-14T04:45:42.822Z,4.30
2018-06-14T04:48:11.605Z,5.03
2018-06-14T04:50:40.822Z,4.83
2018-06-14T04:53:09.738Z,4.30
2018-06-14T04:55:38.164Z,4.40
2018-06-14T04:58:06.698Z,5.23
2018-06-14T05:00:36.034Z,4.23
2018-06-14T05:03:05.302Z,4.63
2018-06-14T05:05:34.374Z,4.40
2018-06-14T05:08:02.986Z,4.30
2018-06-14T05:10:31.455Z,4.83
2018-06-14T05:13:00.200Z,4.00
2018-06-14T05:15:29.243Z,4.60
2018-06-14T05:17:57.704Z,4.53
2018-06-14T05:20:26.356Z,4.40
2018-06-14T05:22:54.942Z,4.17
2018-06-14T05:25:23.426Z,3.97
2018-06-14T05:27:52.435Z,4.67
2018-06-14T05:30:20.998Z,4.37
2018-06-14T05:32:49.735Z,3.50
2018-06-14T05:35:18.632Z,4.70
2018-06-14T05:37:47.105Z,4.00
2018-06-14T05:40:15.594Z,5.40
2018-06-14T05:42:44.155Z,4.30
2018-06-14T05:45:13.270Z,3.60
2018-06-14T05:47:42.548Z,3.57
2018-06-14T05:50:11.642Z,3.37
2018-06-14T05:52:40.399Z,3.90
2018-06-14T05:55:09.071Z,4.20
2018-06-14T05:57:37.764Z,3.10
2018-06-14T06:00:10.129Z,3.60
2018-06-14T06:02:39.102Z,3.53
2018-06-14T06:05:07.569Z,3.20
2018-06-14T06:07:36.275Z,3.63
2018-06-14T06:10:04.798Z,3.13
2018-06-14T06:12:33.857Z,3.47
2018-06-14T06:15:02.445Z,4.07
2018-06-14T06:17:31.125Z,3.40
2018-06-14T06:19:59.605Z,3.47
2018-06-14T06:22:28.676Z,3.90
2018-06-14T06:24:57.258Z,3.07
2018-06-14T06:27:26.008Z,4.17
2018-06-14T06:29:54.836Z,3.03
2018-06-14T06:32:23.585Z,3.50
2018-06-14T06:34:52.069Z,3.07
2018-06-14T06:37:21.244Z,3.73
2018-06-14T06:39:49.835Z,3.37
2018-06-14T06:42:18.618Z,3.37
2018-06-14T06:44:47.319Z,3.47
2018-06-14T06:47:15.923Z,3.80
2018-06-14T06:49:44.779Z,3.50
2018-06-14T06:52:13.508Z,4.00
2018-06-14T06:54:42.509Z,3.20
2018-06-14T06:57:11.274Z,3.50
2018-06-14T06:59:40.335Z,3.00
2018-06-14T07:02:08.965Z,3.50
2018-06-14T07:04:37.449Z,3.80
2018-06-14T07:07:07.430Z,3.43
2018-06-14T07:09:36.677Z,4.20
2018-06-14T07:12:05.713Z,4.30
2018-06-14T07:14:34.851Z,3.93
2018-06-14T07:17:03.833Z,3.60
2018-06-14T07:19:32.511Z,3.33
2018-06-14T07:22:01.134Z,3.03
2018-06-14T07:24:30.181Z,3.43
2018-06-14T07:26:59.122Z,3.57
2018-06-14T07:29:28.523Z,3.53
2018-06-14T07:31:57.442Z,3.43
2018-06-14T07:34:26.623Z,3.60
2018-06-14T07:36:55.838Z,3.20
2018-06-14T07:39:24.931Z,3.63
2018-06-14T07:41:53.743Z,3.40
2018-06-14T07:44:22.361Z,3.70
2018-06-14T07:46:50.845Z,3.90
2018-06-14T07:49:19.524Z,3.50
2018-06-14T07:51:48.461Z,4.00
2018-06-14T07:54:17.546Z,4.00
2018-06-14T07:56:47.037Z,3.50
2018-06-14T07:59:15.822Z,3.77
2018-06-14T08:01:45.051Z,3.40
2018-06-14T08:04:13.589Z,3.37
2018-06-14T08:06:42.074Z,3.93
2018-06-14T08:09:11.298Z,4.13
2018-06-14T08:11:41.207Z,4.10
2018-06-14T08:14:10.601Z,3.77
2018-06-14T08:16:39.378Z,3.60
2018-06-14T08:19:08.238Z,4.30
2018-06-14T08:21:36.926Z,3.70
2018-06-14T08:24:05.533Z,4.07
2018-06-14T08:26:34.578Z,4.50
2018-06-14T08:29:03.178Z,4.00
2018-06-14T08:31:32.615Z,4.93
2018-06-14T08:34:01.412Z,4.67
2018-06-14T08:36:30.958Z,4.77
2018-06-14T08:39:00.018Z,4.47
2018-06-14T08:41:29.526Z,4.90
2018-06-14T08:43:58.619Z,4.50
2018-06-14T08:46:27.579Z,4.23
2018-06-14T08:48:56.277Z,4.30
2018-06-14T08:51:25.359Z,4.50
2018-06-14T08:53:54.897Z,4.57
2018-06-14T08:56:24.413Z,4.30
2018-06-14T08:58:52.974Z,4.83
2018-06-14T09:01:22.019Z,4.57
2018-06-14T09:03:51.107Z,5.07
2018-06-14T09:06:19.642Z,4.30
2018-06-14T09:08:48.710Z,4.70
2018-06-14T09:11:18.167Z,5.00
2018-06-14T09:13:47.396Z,5.00
2018-06-14T09:16:16.410Z,4.43
2018-06-14T09:18:45.408Z,4.90
2018-06-14T09:21:13.881Z,4.90
2018-06-14T09:23:42.396Z,3.97
2018-06-14T09:26:10.865Z,4.57
2018-06-14T09:28:39.354Z,4.80
2018-06-14T09:31:08.151Z,5.37
2018-06-14T09:33:37.562Z,5.47
2018-06-14T09:36:06.156Z,4.77
2018-06-14T09:38:35.454Z,5.53
2018-06-14T09:41:04.855Z,5.10
2018-06-14T09:43:33.625Z,6.20
2018-06-14T09:46:02.676Z,5.37
2018-06-14T09:48:32.076Z,5.40
2018-06-14T09:51:02.147Z,5.20
2018-06-14T09:53:31.188Z,4.60
2018-06-14T09:55:59.959Z,4.93
2018-06-14T09:58:29.085Z,4.57
2018-06-14T10:00:58.262Z,4.50
2018-06-14T10:03:27.050Z,3.93
2018-06-14T10:05:56.230Z,5.17
2018-06-14T10:08:25.511Z,4.77
2018-06-14T10:10:54.263Z,3.90
2018-06-14T10:13:23.407Z,4.00
2018-06-14T10:15:53.225Z,3.63
2018-06-14T10:18:22.389Z,4.07
2018-06-14T10:20:51.304Z,3.70
2018-06-14T10:23:20.134Z,4.17
2018-06-14T10:25:48.670Z,3.83
2018-06-14T10:28:17.799Z,4.60
2018-06-14T10:30:46.670Z,4.00
2018-06-14T10:33:15.558Z,3.83
2018-06-14T10:35:44.310Z,4.47
2018-06-14T10:38:12.892Z,3.90
2018-06-14T10:40:41.559Z,4.10
2018-06-14T10:43:11.615Z,5.00
2018-06-14T10:45:40.403Z,4.50
2018-06-14T10:48:08.965Z,3.93
2018-06-14T10:50:37.441Z,4.40
2018-06-14T10:53:05.912Z,4.77
2018-06-14T10:55:34.739Z,5.27
2018-06-14T10:58:04.078Z,4.53
2018-06-14T11:00:32.929Z,4.93
2018-06-14T11:03:01.717Z,4.67
2018-06-14T11:05:30.513Z,4.90
2018-06-14T11:07:59.402Z,4.53
2018-06-14T11:10:27.849Z,4.63
2018-06-14T11:12:56.555Z,4.30
2018-06-14T11:15:25.695Z,4.70
2018-06-14T11:17:54.446Z,5.30
2018-06-14T11:20:23.624Z,4.33
2018-06-14T11:22:52.372Z,3.30
2018-06-14T11:25:21.164Z,3.50
2018-06-14T11:27:50.942Z,3.67
2018-06-14T11:30:19.923Z,3.83
2018-06-14T11:32:48.762Z,3.17
2018-06-14T11:35:17.233Z,3.83
2018-06-14T11:37:45.955Z,3.73
2018-06-14T11:40:14.522Z,3.30
2018-06-14T11:42:43.341Z,3.63
2018-06-14T11:45:12.442Z,3.33
2018-06-14T11:47:41.020Z,3.60
2018-06-14T11:50:10.074Z,3.13
2018-06-14T11:52:38.697Z,3.63
2018-06-14T11:55:08.423Z,3.10
2018-06-14T11:57:37.001Z,3.33
2018-06-14T12:00:06.311Z,3.90
2018-06-14T12:02:35.607Z,2.77
2018-06-14T12:05:04.073Z,3.03
2018-06-14T12:07:32.558Z,3.03
2018-06-14T12:10:02.174Z,3.90
2018-06-14T12:12:31.230Z,3.87
2018-06-14T12:15:00.332Z,2.97
2018-06-14T12:17:28.953Z,3.00
2018-06-14T12:19:58.372Z,3.03
2018-06-14T12:22:27.582Z,2.97
2018-06-14T12:24:56.373Z,3.47
2018-06-14T12:27:25.182Z,3.10
2018-06-14T12:29:54.286Z,3.07
2018-06-14T12:32:23.083Z,3.70
2018-06-14T12:34:51.678Z,2.70
2018-06-14T12:37:20.600Z,3.97
2018-06-14T12:39:49.318Z,3.47
2018-06-14T12:42:18.285Z,3.80
2018-06-14T12:44:46.961Z,3.87
2018-06-14T12:47:15.406Z,4.53
2018-06-14T12:49:44.187Z,2.93
2018-06-14T12:52:13.091Z,2.93
2018-06-14T12:54:41.947Z,3.17
2018-06-14T12:57:10.668Z,3.10
2018-06-14T12:59:39.453Z,2.80
2018-06-14T13:02:08.674Z,2.80
2018-06-14T13:04:37.738Z,3.07
2018-06-14T13:07:07.288Z,4.53
2018-06-14T13:09:35.850Z,4.67
2018-06-14T13:12:04.338Z,3.10
2018-06-14T13:14:33.738Z,2.90
2018-06-14T13:17:02.940Z,3.17
2018-06-14T13:19:31.934Z,2.63
2018-06-14T13:22:01.440Z,3.07
2018-06-14T13:24:35.488Z,3.07
2018-06-14T13:27:04.034Z,2.73
2018-06-14T13:29:33.684Z,3.03
2018-06-14T13:32:02.326Z,3.33
2018-06-14T13:34:31.671Z,3.90
2018-06-14T13:37:00.145Z,3.40
2018-06-14T13:39:28.676Z,3.80
2018-06-14T13:41:58.092Z,2.70
2018-06-14T13:44:26.762Z,2.83
2018-06-14T13:46:55.327Z,3.00
2018-06-14T13:49:24.237Z,3.13
2018-06-14T13:51:53.553Z,4.10
2018-06-14T13:54:22.243Z,3.40
2018-06-14T13:56:50.817Z,4.40
2018-06-14T13:59:19.298Z,3.40
2018-06-14T14:01:47.797Z,3.60
2018-06-14T14:04:16.281Z,9.27
2018-06-14T14:06:44.746Z,3.23
2018-06-14T14:09:13.451Z,3.30
2018-06-14T14:11:42.145Z,3.40
2018-06-14T14:14:10.850Z,2.87
2018-06-14T14:16:39.720Z,3.27
2018-06-14T14:19:08.285Z,3.00
2018-06-14T14:21:37.391Z,3.10
2018-06-14T14:24:05.956Z,3.77
2018-06-14T14:26:34.414Z,2.50
2018-06-14T14:29:03.184Z,3.50
2018-06-14T14:31:32.119Z,3.40
2018-06-14T14:34:00.641Z,3.20
2018-06-14T14:36:29.081Z,4.60
2018-06-14T14:38:58.230Z,3.80
2018-06-14T14:41:27.595Z,3.23
2018-06-14T14:43:56.598Z,8.77
2018-06-14T14:46:26.076Z,3.70
2018-06-14T14:48:55.582Z,4.70
2018-06-14T14:51:24.158Z,3.17
2018-06-14T14:53:52.841Z,3.43
2018-06-14T14:56:21.638Z,3.43
2018-06-14T14:58:51.077Z,3.40
2018-06-14T15:01:19.522Z,3.20
2018-06-14T15:03:48.978Z,3.17
2018-06-14T15:06:17.762Z,3.53
2018-06-14T15:08:46.540Z,3.43
2018-06-14T15:11:15.365Z,3.40
2018-06-14T15:13:45.023Z,4.10
2018-06-14T15:16:13.913Z,3.20
2018-06-14T15:18:42.595Z,2.90
2018-06-14T15:21:11.422Z,3.40
2018-06-14T15:23:40.080Z,3.57
2018-06-14T15:26:09.067Z,3.53
2018-06-14T15:28:37.868Z,3.17
2018-06-14T15:31:06.512Z,4.10
2018-06-14T15:33:35.611Z,3.13
2018-06-14T15:36:04.433Z,3.47
2018-06-14T15:38:34.058Z,3.53
2018-06-14T15:41:03.158Z,3.13
2018-06-14T15:43:31.668Z,3.50
2018-06-14T15:46:00.128Z,3.60
2018-06-14T15:48:28.691Z,4.20
2018-06-14T15:50:58.462Z,6.10
2018-06-14T15:53:27.046Z,3.80
2018-06-14T15:56:07.942Z,3.47
2018-06-14T15:58:36.643Z,3.33
2018-06-14T16:01:05.634Z,4.20
2018-06-14T16:03:34.754Z,3.90
2018-06-14T16:06:03.666Z,4.73
2018-06-14T16:08:32.566Z,3.97
2018-06-14T16:11:01.432Z,4.60
2018-06-14T16:13:30.121Z,4.33
2018-06-14T16:15:59.205Z,5.23
2018-06-14T16:18:27.982Z,4.60
2018-06-14T16:20:56.997Z,5.30
2018-06-14T16:23:26.288Z,4.80
2018-06-14T16:25:55.887Z,4.90
2018-06-14T16:28:25.134Z,5.03
2018-06-14T16:30:54.118Z,5.20
2018-06-14T16:33:22.580Z,5.80
2018-06-14T16:35:51.706Z,5.60
2018-06-14T16:38:21.379Z,5.13
2018-06-14T16:40:50.470Z,4.67
2018-06-14T16:43:20.248Z,5.90
2018-06-14T16:45:49.598Z,5.90
2018-06-14T16:48:18.366Z,4.70
2018-06-14T16:50:47.366Z,4.43
2018-06-14T16:53:15.989Z,4.40
2018-06-14T16:55:44.425Z,4.37
2018-06-14T16:58:13.282Z,5.00
2018-06-14T17:00:41.992Z,5.00
2018-06-14T17:03:11.139Z,4.17
2018-06-14T17:05:39.916Z,4.30
2018-06-14T17:08:09.520Z,4.40
2018-06-14T17:10:38.399Z,5.07
2018-06-14T17:13:07.439Z,4.60
2018-06-14T17:15:37.029Z,5.23
2018-06-14T17:18:06.111Z,5.33
2018-06-14T17:20:35.357Z,4.93
2018-06-14T17:23:03.937Z,4.83
2018-06-14T17:25:32.374Z,4.67
2018-06-14T17:28:01.603Z,4.80
2018-06-14T17:30:30.306Z,4.90
2018-06-14T17:32:59.405Z,4.60
2018-06-14T17:35:27.981Z,6.00
2018-06-14T17:37:58.966Z,5.80
2018-06-14T17:40:28.066Z,6.93
2018-06-14T17:42:57.070Z,6.00
2018-06-14T17:45:25.541Z,7.33
2018-06-14T17:47:54.942Z,6.97
2018-06-14T17:50:23.854Z,7.90
2018-06-14T17:52:52.670Z,11.80
2018-06-14T17:55:21.206Z,11.77
2018-06-14T17:57:50.117Z,11.80
2018-06-14T18:00:18.861Z,13.73
2018-06-14T18:02:47.338Z,14.90
2018-06-14T18:05:16.532Z,16.47
2018-06-14T18:07:45.254Z,16.23
2018-06-14T18:10:14.214Z,15.93
2018-06-14T18:12:42.702Z,15.30
2018-06-14T18:15:11.653Z,15.50
2018-06-14T18:17:40.474Z,16.60
2018-06-14T18:20:09.823Z,17.27
2018-06-14T18:22:38.755Z,16.13
2018-06-14T18:25:07.626Z,17.33
2018-06-14T18:27:37.254Z,18.27
2018-06-14T18:30:06.394Z,20.60
2018-06-14T18:32:35.331Z,17.80
2018-06-14T18:35:03.797Z,19.47
2018-06-14T18:37:32.322Z,17.43
2018-06-14T18:40:00.806Z,19.27
2018-06-14T18:42:29.734Z,19.90
2018-06-14T18:44:58.385Z,17.97
2018-06-14T18:47:26.897Z,18.60
2018-06-14T18:49:56.565Z,19.23
2018-06-14T18:52:25.655Z,19.23
2018-06-14T18:54:54.209Z,20.47
2018-06-14T18:57:23.288Z,18.87
2018-06-14T18:59:52.338Z,18.77
2018-06-14T19:02:21.527Z,20.77
2018-06-14T19:04:50.391Z,19.03
2018-06-14T19:07:19.186Z,17.93
2018-06-14T19:09:48.602Z,18.30
2018-06-14T19:12:17.854Z,17.40
2018-06-14T19:14:46.920Z,17.97
2018-06-14T19:17:15.665Z,19.67
2018-06-14T19:19:44.962Z,19.60
2018-06-14T19:22:13.670Z,19.30
2018-06-14T19:24:42.647Z,20.17
2018-06-14T19:27:12.546Z,20.07
2018-06-14T19:29:41.641Z,18.27
2018-06-14T19:32:10.518Z,19.77
2018-06-14T19:34:39.673Z,19.13
2018-06-14T19:37:08.458Z,19.77
2018-06-14T19:39:37.703Z,22.77
2018-06-14T19:42:06.835Z,19.83
2018-06-14T19:44:35.958Z,22.70
2018-06-14T19:47:05.007Z,21.37
2018-06-14T19:49:34.911Z,19.37
2018-06-14T19:52:04.114Z,22.13
2018-06-14T19:54:33.304Z,20.33
2018-06-14T19:57:02.769Z,21.33
2018-06-14T19:59:31.863Z,21.23
2018-06-14T20:02:00.650Z,22.53
2018-06-14T20:04:29.489Z,20.03
2018-06-14T20:06:58.290Z,21.10
2018-06-14T20:09:27.945Z,19.30
2018-06-14T20:11:57.125Z,19.67
2018-06-14T20:14:26.240Z,19.67
2018-06-14T20:16:55.571Z,18.70
2018-06-14T20:19:24.702Z,19.00
2018-06-14T20:21:53.548Z,20.10
2018-06-14T20:24:22.065Z,18.50
2018-06-14T20:26:51.999Z,19.90
2018-06-14T20:29:20.776Z,17.57
2018-06-14T20:31:50.246Z,22.53
2018-06-14T20:34:19.136Z,17.73
2018-06-14T20:36:48.759Z,17.17
2018-06-14T20:39:17.563Z,18.50
2018-06-14T20:41:46.681Z,17.80
2018-06-14T20:44:15.791Z,18.27
2018-06-14T20:46:44.958Z,26.97
2018-06-14T20:49:13.754Z,17.40
2018-06-14T20:51:42.635Z,16.20
2018-06-14T20:54:11.711Z,14.80
2018-06-14T20:56:40.920Z,16.23
2018-06-14T20:59:09.775Z,16.17
2018-06-14T21:01:38.737Z,16.20
2018-06-14T21:04:07.446Z,15.27
2018-06-14T21:06:36.405Z,12.77
2018-06-14T21:09:07.865Z,14.20
2018-06-14T21:11:37.024Z,12.13
2018-06-14T21:14:06.243Z,12.50
2018-06-14T21:16:35.852Z,13.13
2018-06-14T21:19:04.787Z,11.67
2018-06-14T21:21:33.950Z,11.57
2018-06-14T21:24:03.869Z,12.93
2018-06-14T21:26:32.784Z,12.43
2018-06-14T21:29:02.562Z,12.27
2018-06-14T21:31:31.569Z,12.23
2018-06-14T21:34:00.807Z,12.43
2018-06-14T21:36:29.550Z,11.70
2018-06-14T21:38:59.035Z,12.23
2018-06-14T21:41:28.379Z,11.47
2018-06-14T21:43:57.322Z,11.07
2018-06-14T21:46:26.107Z,10.70
2018-06-14T21:48:54.955Z,9.80
2018-06-14T21:51:24.122Z,10.30
2018-06-14T21:53:53.902Z,13.30
2018-06-14T21:56:22.833Z,10.97
2018-06-14T21:58:52.195Z,9.97
2018-06-14T22:01:21.370Z,10.80
2018-06-14T22:03:56.098Z,10.27
2018-06-14T22:06:25.064Z,12.20
2018-06-14T22:08:54.311Z,10.63
2018-06-14T22:11:23.160Z,10.60
2018-06-14T22:13:52.334Z,9.93
2018-06-14T22:16:20.945Z,10.10
2018-06-14T22:18:49.426Z,11.10
2018-06-14T22:21:18.173Z,9.97
2018-06-14T22:23:47.438Z,11.00
2018-06-14T22:26:16.566Z,10.50
2018-06-14T22:28:45.890Z,11.60
2018-06-14T22:31:15.030Z,10.87
2018-06-14T22:33:49.676Z,10.40
2018-06-14T22:36:19.334Z,11.47
2018-06-14T22:38:48.462Z,12.03
2018-06-14T22:41:17.291Z,11.90
2018-06-14T22:43:46.105Z,9.90
2018-06-14T22:46:14.715Z,11.13
2018-06-14T22:48:43.433Z,12.50
2018-06-14T22:51:17.128Z,11.40
2018-06-14T22:53:46.239Z,11.23
2018-06-14T22:56:15.114Z,10.83
2018-06-14T22:58:44.106Z,10.67
2018-06-14T23:01:49.871Z,10.60
2018-06-14T23:04:20.575Z,11.30
2018-06-14T23:06:49.326Z,11.63
2018-06-14T23:10:31.614Z,11.73
2018-06-14T23:13:00.415Z,11.53
2018-06-14T23:15:29.792Z,12.33
2018-06-14T23:17:58.797Z,13.47
2018-06-14T23:20:28.971Z,12.37
2018-06-14T23:22:58.438Z,13.03
2018-06-14T23:25:28.338Z,12.60
2018-06-14T23:27:57.493Z,12.00
2018-06-14T23:30:26.597Z,13.83
2018-06-14T23:32:56.118Z,12.90
2018-06-14T23:35:24.946Z,11.67
2018-06-14T23:37:54.150Z,11.80
2018-06-14T23:40:23.187Z,12.90
2018-06-14T23:42:52.493Z,14.17
2018-06-14T23:45:21.627Z,12.67
2018-06-14T23:47:50.546Z,13.93
2018-06-14T23:50:19.449Z,13.30
2018-06-14T23:52:48.590Z,12.90
2018-06-14T23:55:18.208Z,14.17
2018-06-14T23:57:47.421Z,13.23
